sensor_id;sensor_type;location;lat;lon;timestamp;P1;durP1;ratioP1;P2;durP2;ratioP2
45694;SDS011;31408;45.468;9.124;2022-08-19T00:00:07;2.03;;;1.10;;
45694;SDS011;31408;45.468;9.124;2022-08-19T00:02:34;1.75;;;1.10;;
45694;SDS011;31408;45.468;9.124;2022-08-19T00:05:00;7.72;;;1.90;;
45694;SDS011;31408;45.468;9.124;2022-08-19T00:07:26;3.00;;;2.30;;
45694;SDS011;31408;45.468;9.124;2022-08-19T00:09:51;4.20;;;1.48;;
45694;SDS011;31408;45.468;9.124;2022-08-19T00:12:17;4.68;;;1.40;;
45694;SDS011;31408;45.468;9.124;2022-08-19T00:14:42;1.23;;;1.17;;
45694;SDS011;31408;45.468;9.124;2022-08-19T00:17:08;1.48;;;1.23;;
45694;SDS011;31408;45.468;9.124;2022-08-19T00:19:34;1.90;;;1.13;;
45694;SDS011;31408;45.468;9.124;2022-08-19T00:22:00;1.75;;;1.15;;
45694;SDS011;31408;45.468;9.124;2022-08-19T00:24:25;2.33;;;1.25;;
45694;SDS011;31408;45.468;9.124;2022-08-19T00:26:51;1.40;;;1.27;;
45694;SDS011;31408;45.468;9.124;2022-08-19T00:29:17;3.45;;;1.20;;
45694;SDS011;31408;45.468;9.124;2022-08-19T00:31:44;3.25;;;1.30;;
45694;SDS011;31408;45.468;9.124;2022-08-19T00:34:10;3.60;;;1.38;;
45694;SDS011;31408;45.468;9.124;2022-08-19T00:36:37;2.17;;;1.33;;
45694;SDS011;31408;45.468;9.124;2022-08-19T00:39:03;3.20;;;1.73;;
45694;SDS011;31408;45.468;9.124;2022-08-19T00:41:28;5.75;;;1.08;;
45694;SDS011;31408;45.468;9.124;2022-08-19T00:46:26;2.63;;;1.05;;
45694;SDS011;31408;45.468;9.124;2022-08-19T00:48:52;2.40;;;1.73;;
45694;SDS011;31408;45.468;9.124;2022-08-19T00:51:18;2.47;;;1.52;;
45694;SDS011;31408;45.468;9.124;2022-08-19T00:53:43;1.45;;;1.23;;
45694;SDS011;31408;45.468;9.124;2022-08-19T00:56:09;2.92;;;1.25;;
45694;SDS011;31408;45.468;9.124;2022-08-19T00:58:35;4.90;;;2.08;;
45694;SDS011;31408;45.468;9.124;2022-08-19T01:01:02;1.92;;;0.88;;
45694;SDS011;31408;45.468;9.124;2022-08-19T01:03:28;6.60;;;1.67;;
45694;SDS011;31408;45.468;9.124;2022-08-19T01:05:54;6.72;;;1.77;;
45694;SDS011;31408;45.468;9.124;2022-08-19T01:08:20;2.67;;;1.27;;
45694;SDS011;31408;45.468;9.124;2022-08-19T01:10:50;4.25;;;1.58;;
45694;SDS011;31408;45.468;9.124;2022-08-19T01:13:20;4.57;;;1.50;;
45694;SDS011;31408;45.468;9.124;2022-08-19T01:15:53;1.55;;;1.08;;
45694;SDS011;31408;45.468;9.124;2022-08-19T01:18:21;7.10;;;1.77;;
45694;SDS011;31408;45.468;9.124;2022-08-19T01:20:48;1.23;;;1.08;;
45694;SDS011;31408;45.468;9.124;2022-08-19T01:23:14;2.35;;;1.52;;
45694;SDS011;31408;45.468;9.124;2022-08-19T01:25:48;3.50;;;2.05;;
45694;SDS011;31408;45.468;9.124;2022-08-19T01:28:21;5.10;;;1.77;;
45694;SDS011;31408;45.468;9.124;2022-08-19T01:30:49;1.75;;;1.27;;
45694;SDS011;31408;45.468;9.124;2022-08-19T01:33:14;5.03;;;1.45;;
45694;SDS011;31408;45.468;9.124;2022-08-19T01:35:41;3.10;;;1.30;;
45694;SDS011;31408;45.468;9.124;2022-08-19T01:38:08;5.97;;;2.05;;
45694;SDS011;31408;45.468;9.124;2022-08-19T01:40:36;2.03;;;1.75;;
45694;SDS011;31408;45.468;9.124;2022-08-19T01:43:04;4.47;;;1.45;;
45694;SDS011;31408;45.468;9.124;2022-08-19T01:45:33;4.55;;;1.77;;
45694;SDS011;31408;45.468;9.124;2022-08-19T01:47:59;3.67;;;1.50;;
45694;SDS011;31408;45.468;9.124;2022-08-19T01:50:25;3.45;;;1.88;;
45694;SDS011;31408;45.468;9.124;2022-08-19T01:52:51;5.70;;;1.52;;
45694;SDS011;31408;45.468;9.124;2022-08-19T01:55:17;3.53;;;1.83;;
45694;SDS011;31408;45.468;9.124;2022-08-19T01:57:46;3.30;;;1.63;;
45694;SDS011;31408;45.468;9.124;2022-08-19T02:00:14;2.45;;;1.50;;
45694;SDS011;31408;45.468;9.124;2022-08-19T02:02:41;3.55;;;1.50;;
45694;SDS011;31408;45.468;9.124;2022-08-19T02:05:07;6.60;;;1.48;;
45694;SDS011;31408;45.468;9.124;2022-08-19T02:07:34;4.70;;;1.52;;
45694;SDS011;31408;45.468;9.124;2022-08-19T02:10:04;2.60;;;1.35;;
45694;SDS011;31408;45.468;9.124;2022-08-19T02:12:31;5.15;;;1.38;;
45694;SDS011;31408;45.468;9.124;2022-08-19T02:14:56;2.17;;;1.65;;
45694;SDS011;31408;45.468;9.124;2022-08-19T02:17:21;1.98;;;1.25;;
45694;SDS011;31408;45.468;9.124;2022-08-19T02:19:47;7.28;;;2.05;;
45694;SDS011;31408;45.468;9.124;2022-08-19T02:22:14;4.85;;;1.30;;
45694;SDS011;31408;45.468;9.124;2022-08-19T02:24:39;2.05;;;1.13;;
45694;SDS011;31408;45.468;9.124;2022-08-19T02:27:05;2.25;;;1.35;;
45694;SDS011;31408;45.468;9.124;2022-08-19T02:29:31;2.17;;;1.45;;
45694;SDS011;31408;45.468;9.124;2022-08-19T02:31:57;3.58;;;1.10;;
45694;SDS011;31408;45.468;9.124;2022-08-19T02:34:23;2.67;;;1.35;;
45694;SDS011;31408;45.468;9.124;2022-08-19T02:36:50;2.03;;;1.80;;
45694;SDS011;31408;45.468;9.124;2022-08-19T02:39:16;7.53;;;2.30;;
45694;SDS011;31408;45.468;9.124;2022-08-19T02:41:41;4.60;;;1.83;;
45694;SDS011;31408;45.468;9.124;2022-08-19T02:44:06;6.53;;;1.80;;
45694;SDS011;31408;45.468;9.124;2022-08-19T02:46:32;2.65;;;1.75;;
45694;SDS011;31408;45.468;9.124;2022-08-19T02:48:59;6.28;;;2.25;;
45694;SDS011;31408;45.468;9.124;2022-08-19T02:51:29;6.82;;;2.22;;
45694;SDS011;31408;45.468;9.124;2022-08-19T02:53:59;5.78;;;1.95;;
45694;SDS011;31408;45.468;9.124;2022-08-19T02:56:25;2.17;;;1.40;;
45694;SDS011;31408;45.468;9.124;2022-08-19T02:58:52;3.42;;;1.65;;
45694;SDS011;31408;45.468;9.124;2022-08-19T03:01:22;4.57;;;1.63;;
45694;SDS011;31408;45.468;9.124;2022-08-19T03:03:56;3.08;;;1.70;;
45694;SDS011;31408;45.468;9.124;2022-08-19T03:06:24;1.95;;;1.52;;
45694;SDS011;31408;45.468;9.124;2022-08-19T03:08:50;5.80;;;1.70;;
45694;SDS011;31408;45.468;9.124;2022-08-19T03:11:17;3.33;;;1.38;;
45694;SDS011;31408;45.468;9.124;2022-08-19T03:13:48;4.60;;;1.00;;
45694;SDS011;31408;45.468;9.124;2022-08-19T03:16:16;2.50;;;1.60;;
45694;SDS011;31408;45.468;9.124;2022-08-19T03:18:42;3.00;;;1.70;;
45694;SDS011;31408;45.468;9.124;2022-08-19T03:21:08;3.90;;;1.67;;
45694;SDS011;31408;45.468;9.124;2022-08-19T03:23:34;3.67;;;1.58;;
45694;SDS011;31408;45.468;9.124;2022-08-19T03:26:02;2.92;;;1.73;;
45694;SDS011;31408;45.468;9.124;2022-08-19T03:28:29;3.45;;;1.52;;
45694;SDS011;31408;45.468;9.124;2022-08-19T03:31:00;1.60;;;1.40;;
45694;SDS011;31408;45.468;9.124;2022-08-19T03:33:31;3.10;;;1.70;;
45694;SDS011;31408;45.468;9.124;2022-08-19T03:38:32;2.67;;;1.60;;
45694;SDS011;31408;45.468;9.124;2022-08-19T03:41:01;2.60;;;1.65;;
45694;SDS011;31408;45.468;9.124;2022-08-19T03:43:28;3.65;;;2.00;;
45694;SDS011;31408;45.468;9.124;2022-08-19T03:46:27;8.68;;;1.65;;
45694;SDS011;31408;45.468;9.124;2022-08-19T03:48:47;1.65;;;1.35;;
45694;SDS011;31408;45.468;9.124;2022-08-19T03:51:18;6.88;;;1.92;;
45694;SDS011;31408;45.468;9.124;2022-08-19T03:53:48;6.97;;;1.95;;
45694;SDS011;31408;45.468;9.124;2022-08-19T03:56:14;4.53;;;1.80;;
45694;SDS011;31408;45.468;9.124;2022-08-19T03:58:40;2.92;;;1.95;;
45694;SDS011;31408;45.468;9.124;2022-08-19T04:01:10;4.82;;;1.95;;
45694;SDS011;31408;45.468;9.124;2022-08-19T04:03:38;1.73;;;1.38;;
45694;SDS011;31408;45.468;9.124;2022-08-19T04:06:11;1.50;;;1.40;;
45694;SDS011;31408;45.468;9.124;2022-08-19T04:08:41;3.75;;;1.77;;
45694;SDS011;31408;45.468;9.124;2022-08-19T04:11:12;2.03;;;1.77;;
45694;SDS011;31408;45.468;9.124;2022-08-19T04:13:39;3.55;;;1.20;;
45694;SDS011;31408;45.468;9.124;2022-08-19T04:16:05;2.38;;;1.40;;
45694;SDS011;31408;45.468;9.124;2022-08-19T04:18:33;2.13;;;1.58;;
45694;SDS011;31408;45.468;9.124;2022-08-19T04:20:59;2.15;;;1.33;;
45694;SDS011;31408;45.468;9.124;2022-08-19T04:23:25;2.35;;;1.50;;
45694;SDS011;31408;45.468;9.124;2022-08-19T04:25:52;6.20;;;2.28;;
45694;SDS011;31408;45.468;9.124;2022-08-19T04:28:17;4.43;;;1.85;;
45694;SDS011;31408;45.468;9.124;2022-08-19T04:30:44;3.22;;;1.30;;
45694;SDS011;31408;45.468;9.124;2022-08-19T04:33:13;1.17;;;1.02;;
45694;SDS011;31408;45.468;9.124;2022-08-19T04:35:41;2.00;;;1.33;;
45694;SDS011;31408;45.468;9.124;2022-08-19T04:38:08;8.25;;;1.75;;
45694;SDS011;31408;45.468;9.124;2022-08-19T04:40:34;3.40;;;1.98;;
45694;SDS011;31408;45.468;9.124;2022-08-19T04:43:24;3.60;;;1.92;;
45694;SDS011;31408;45.468;9.124;2022-08-19T04:45:49;3.25;;;1.55;;
45694;SDS011;31408;45.468;9.124;2022-08-19T04:48:16;3.15;;;1.85;;
45694;SDS011;31408;45.468;9.124;2022-08-19T04:50:44;2.35;;;1.75;;
45694;SDS011;31408;45.468;9.124;2022-08-19T04:53:09;1.88;;;1.45;;
45694;SDS011;31408;45.468;9.124;2022-08-19T04:55:38;4.65;;;1.67;;
45694;SDS011;31408;45.468;9.124;2022-08-19T04:58:04;1.90;;;1.52;;
45694;SDS011;31408;45.468;9.124;2022-08-19T05:00:30;5.22;;;1.33;;
45694;SDS011;31408;45.468;9.124;2022-08-19T05:02:55;5.72;;;1.80;;
45694;SDS011;31408;45.468;9.124;2022-08-19T05:05:20;1.33;;;1.23;;
45694;SDS011;31408;45.468;9.124;2022-08-19T05:07:46;1.55;;;1.42;;
45694;SDS011;31408;45.468;9.124;2022-08-19T05:10:12;2.58;;;1.25;;
45694;SDS011;31408;45.468;9.124;2022-08-19T05:12:38;5.20;;;1.75;;
45694;SDS011;31408;45.468;9.124;2022-08-19T05:15:04;3.70;;;1.45;;
45694;SDS011;31408;45.468;9.124;2022-08-19T05:17:30;3.00;;;1.77;;
45694;SDS011;31408;45.468;9.124;2022-08-19T05:19:56;6.30;;;1.58;;
45694;SDS011;31408;45.468;9.124;2022-08-19T05:22:41;2.58;;;1.08;;
45694;SDS011;31408;45.468;9.124;2022-08-19T05:25:08;3.22;;;1.52;;
45694;SDS011;31408;45.468;9.124;2022-08-19T05:27:37;1.42;;;1.30;;
45694;SDS011;31408;45.468;9.124;2022-08-19T05:30:02;6.10;;;1.73;;
45694;SDS011;31408;45.468;9.124;2022-08-19T05:32:29;5.15;;;2.42;;
45694;SDS011;31408;45.468;9.124;2022-08-19T05:34:54;3.42;;;1.95;;
45694;SDS011;31408;45.468;9.124;2022-08-19T05:37:20;4.95;;;1.80;;
45694;SDS011;31408;45.468;9.124;2022-08-19T05:39:46;11.65;;;2.65;;
45694;SDS011;31408;45.468;9.124;2022-08-19T05:42:12;5.90;;;2.78;;
45694;SDS011;31408;45.468;9.124;2022-08-19T05:44:40;4.43;;;2.17;;
45694;SDS011;31408;45.468;9.124;2022-08-19T05:47:10;4.85;;;2.95;;
45694;SDS011;31408;45.468;9.124;2022-08-19T05:49:37;4.60;;;2.15;;
45694;SDS011;31408;45.468;9.124;2022-08-19T05:52:03;5.55;;;2.20;;
45694;SDS011;31408;45.468;9.124;2022-08-19T05:54:29;4.38;;;2.08;;
45694;SDS011;31408;45.468;9.124;2022-08-19T05:56:56;2.17;;;1.90;;
45694;SDS011;31408;45.468;9.124;2022-08-19T05:59:21;2.67;;;1.80;;
45694;SDS011;31408;45.468;9.124;2022-08-19T06:01:47;4.07;;;1.75;;
45694;SDS011;31408;45.468;9.124;2022-08-19T06:04:17;7.72;;;2.50;;
45694;SDS011;31408;45.468;9.124;2022-08-19T06:06:45;4.63;;;2.55;;
45694;SDS011;31408;45.468;9.124;2022-08-19T06:09:11;3.05;;;1.85;;
45694;SDS011;31408;45.468;9.124;2022-08-19T06:11:38;2.30;;;1.63;;
45694;SDS011;31408;45.468;9.124;2022-08-19T06:14:08;3.70;;;1.88;;
45694;SDS011;31408;45.468;9.124;2022-08-19T06:16:35;3.80;;;1.95;;
45694;SDS011;31408;45.468;9.124;2022-08-19T06:19:04;3.72;;;2.17;;
45694;SDS011;31408;45.468;9.124;2022-08-19T06:21:32;4.00;;;2.05;;
45694;SDS011;31408;45.468;9.124;2022-08-19T06:23:58;6.45;;;2.35;;
45694;SDS011;31408;45.468;9.124;2022-08-19T06:26:23;5.28;;;2.33;;
45694;SDS011;31408;45.468;9.124;2022-08-19T06:28:50;3.50;;;2.38;;
45694;SDS011;31408;45.468;9.124;2022-08-19T06:31:16;7.07;;;2.92;;
45694;SDS011;31408;45.468;9.124;2022-08-19T06:33:44;5.25;;;2.70;;
45694;SDS011;31408;45.468;9.124;2022-08-19T06:38:54;2.97;;;2.38;;
45694;SDS011;31408;45.468;9.124;2022-08-19T06:41:21;6.30;;;2.65;;
45694;SDS011;31408;45.468;9.124;2022-08-19T06:43:47;5.90;;;2.85;;
45694;SDS011;31408;45.468;9.124;2022-08-19T06:46:14;5.53;;;2.67;;
45694;SDS011;31408;45.468;9.124;2022-08-19T06:48:41;4.13;;;2.20;;
45694;SDS011;31408;45.468;9.124;2022-08-19T06:51:07;7.03;;;3.13;;
45694;SDS011;31408;45.468;9.124;2022-08-19T06:53:32;6.88;;;2.83;;
45694;SDS011;31408;45.468;9.124;2022-08-19T06:55:58;3.30;;;2.60;;
45694;SDS011;31408;45.468;9.124;2022-08-19T06:58:30;3.00;;;2.42;;
45694;SDS011;31408;45.468;9.124;2022-08-19T07:00:59;4.70;;;2.75;;
45694;SDS011;31408;45.468;9.124;2022-08-19T07:03:29;3.55;;;2.00;;
45694;SDS011;31408;45.468;9.124;2022-08-19T07:05:56;4.43;;;2.45;;
45694;SDS011;31408;45.468;9.124;2022-08-19T07:08:22;7.88;;;2.90;;
45694;SDS011;31408;45.468;9.124;2022-08-19T07:10:47;8.05;;;3.47;;
45694;SDS011;31408;45.468;9.124;2022-08-19T07:13:14;6.05;;;2.55;;
45694;SDS011;31408;45.468;9.124;2022-08-19T07:15:39;9.13;;;3.00;;
45694;SDS011;31408;45.468;9.124;2022-08-19T07:18:05;4.97;;;2.00;;
45694;SDS011;31408;45.468;9.124;2022-08-19T07:20:30;3.97;;;1.67;;
45694;SDS011;31408;45.468;9.124;2022-08-19T07:22:56;4.70;;;3.13;;
45694;SDS011;31408;45.468;9.124;2022-08-19T07:25:22;4.63;;;2.08;;
45694;SDS011;31408;45.468;9.124;2022-08-19T07:27:50;2.70;;;1.52;;
45694;SDS011;31408;45.468;9.124;2022-08-19T07:30:15;3.03;;;1.40;;
45694;SDS011;31408;45.468;9.124;2022-08-19T07:32:42;3.95;;;1.23;;
45694;SDS011;31408;45.468;9.124;2022-08-19T07:35:08;3.50;;;1.33;;
45694;SDS011;31408;45.468;9.124;2022-08-19T07:37:34;2.22;;;1.50;;
45694;SDS011;31408;45.468;9.124;2022-08-19T07:40:03;5.50;;;1.70;;
45694;SDS011;31408;45.468;9.124;2022-08-19T07:42:30;4.90;;;1.50;;
45694;SDS011;31408;45.468;9.124;2022-08-19T07:44:56;2.90;;;1.67;;
45694;SDS011;31408;45.468;9.124;2022-08-19T07:47:23;3.00;;;1.67;;
45694;SDS011;31408;45.468;9.124;2022-08-19T07:49:48;3.45;;;1.45;;
45694;SDS011;31408;45.468;9.124;2022-08-19T07:52:13;6.00;;;1.73;;
45694;SDS011;31408;45.468;9.124;2022-08-19T07:54:39;7.88;;;1.73;;
45694;SDS011;31408;45.468;9.124;2022-08-19T07:57:06;5.47;;;1.60;;
45694;SDS011;31408;45.468;9.124;2022-08-19T07:59:32;2.70;;;1.50;;
45694;SDS011;31408;45.468;9.124;2022-08-19T08:01:57;4.95;;;1.60;;
45694;SDS011;31408;45.468;9.124;2022-08-19T08:04:25;2.97;;;1.45;;
45694;SDS011;31408;45.468;9.124;2022-08-19T08:07:10;4.00;;;1.85;;
45694;SDS011;31408;45.468;9.124;2022-08-19T08:09:54;3.33;;;2.10;;
45694;SDS011;31408;45.468;9.124;2022-08-19T08:12:31;3.20;;;2.00;;
45694;SDS011;31408;45.468;9.124;2022-08-19T08:15:06;3.15;;;1.83;;
45694;SDS011;31408;45.468;9.124;2022-08-19T08:17:34;10.02;;;2.20;;
45694;SDS011;31408;45.468;9.124;2022-08-19T08:20:01;4.65;;;2.42;;
45694;SDS011;31408;45.468;9.124;2022-08-19T08:22:31;7.13;;;2.13;;
45694;SDS011;31408;45.468;9.124;2022-08-19T08:25:16;3.80;;;2.25;;
45694;SDS011;31408;45.468;9.124;2022-08-19T08:27:44;3.28;;;1.63;;
45694;SDS011;31408;45.468;9.124;2022-08-19T08:30:12;4.47;;;2.30;;
45694;SDS011;31408;45.468;9.124;2022-08-19T08:32:40;6.18;;;2.13;;
45694;SDS011;31408;45.468;9.124;2022-08-19T08:35:07;1.95;;;1.50;;
45694;SDS011;31408;45.468;9.124;2022-08-19T08:37:33;3.50;;;1.88;;
45694;SDS011;31408;45.468;9.124;2022-08-19T08:40:02;8.02;;;2.63;;
45694;SDS011;31408;45.468;9.124;2022-08-19T08:42:32;8.63;;;2.10;;
45694;SDS011;31408;45.468;9.124;2022-08-19T08:45:12;2.78;;;1.90;;
45694;SDS011;31408;45.468;9.124;2022-08-19T08:47:41;2.35;;;1.52;;
45694;SDS011;31408;45.468;9.124;2022-08-19T08:50:25;6.10;;;2.58;;
45694;SDS011;31408;45.468;9.124;2022-08-19T08:52:55;4.18;;;1.80;;
45694;SDS011;31408;45.468;9.124;2022-08-19T08:55:23;4.78;;;1.70;;
45694;SDS011;31408;45.468;9.124;2022-08-19T08:58:03;3.00;;;1.90;;
45694;SDS011;31408;45.468;9.124;2022-08-19T09:00:31;3.90;;;1.70;;
45694;SDS011;31408;45.468;9.124;2022-08-19T09:03:00;4.10;;;1.55;;
45694;SDS011;31408;45.468;9.124;2022-08-19T09:05:34;2.90;;;1.77;;
45694;SDS011;31408;45.468;9.124;2022-08-19T09:10:56;3.40;;;1.38;;
45694;SDS011;31408;45.468;9.124;2022-08-19T09:13:42;3.38;;;2.13;;
45694;SDS011;31408;45.468;9.124;2022-08-19T09:16:15;2.47;;;1.80;;
45694;SDS011;31408;45.468;9.124;2022-08-19T09:18:46;1.60;;;1.40;;
45694;SDS011;31408;45.468;9.124;2022-08-19T09:21:19;3.03;;;1.90;;
45694;SDS011;31408;45.468;9.124;2022-08-19T09:23:47;4.95;;;1.65;;
45694;SDS011;31408;45.468;9.124;2022-08-19T09:26:14;7.65;;;2.40;;
45694;SDS011;31408;45.468;9.124;2022-08-19T09:28:42;3.10;;;1.42;;
45694;SDS011;31408;45.468;9.124;2022-08-19T09:31:09;3.55;;;1.27;;
45694;SDS011;31408;45.468;9.124;2022-08-19T09:33:36;7.32;;;1.65;;
45694;SDS011;31408;45.468;9.124;2022-08-19T09:36:03;2.92;;;1.10;;
45694;SDS011;31408;45.468;9.124;2022-08-19T09:38:33;2.70;;;1.80;;
45694;SDS011;31408;45.468;9.124;2022-08-19T09:41:03;1.67;;;0.90;;
45694;SDS011;31408;45.468;9.124;2022-08-19T09:43:34;1.73;;;1.30;;
45694;SDS011;31408;45.468;9.124;2022-08-19T09:46:04;4.82;;;1.88;;
45694;SDS011;31408;45.468;9.124;2022-08-19T09:48:40;1.33;;;1.15;;
45694;SDS011;31408;45.468;9.124;2022-08-19T09:51:08;2.95;;;1.48;;
45694;SDS011;31408;45.468;9.124;2022-08-19T09:53:35;7.78;;;1.48;;
45694;SDS011;31408;45.468;9.124;2022-08-19T09:56:01;2.03;;;1.20;;
45694;SDS011;31408;45.468;9.124;2022-08-19T09:58:27;6.05;;;1.05;;
45694;SDS011;31408;45.468;9.124;2022-08-19T10:00:54;2.78;;;1.30;;
45694;SDS011;31408;45.468;9.124;2022-08-19T10:03:20;2.13;;;1.20;;
45694;SDS011;31408;45.468;9.124;2022-08-19T10:05:46;3.25;;;0.90;;
45694;SDS011;31408;45.468;9.124;2022-08-19T10:08:15;1.23;;;0.60;;
45694;SDS011;31408;45.468;9.124;2022-08-19T10:10:45;4.75;;;1.38;;
45694;SDS011;31408;45.468;9.124;2022-08-19T10:13:12;4.82;;;1.23;;
45694;SDS011;31408;45.468;9.124;2022-08-19T10:15:39;4.47;;;0.75;;
45694;SDS011;31408;45.468;9.124;2022-08-19T10:18:06;1.70;;;0.82;;
45694;SDS011;31408;45.468;9.124;2022-08-19T10:20:38;3.80;;;1.10;;
45694;SDS011;31408;45.468;9.124;2022-08-19T10:23:07;2.63;;;0.70;;
45694;SDS011;31408;45.468;9.124;2022-08-19T10:25:35;1.50;;;0.88;;
45694;SDS011;31408;45.468;9.124;2022-08-19T10:28:00;2.50;;;0.65;;
45694;SDS011;31408;45.468;9.124;2022-08-19T10:30:26;3.40;;;1.10;;
45694;SDS011;31408;45.468;9.124;2022-08-19T10:32:52;1.42;;;0.90;;
45694;SDS011;31408;45.468;9.124;2022-08-19T10:35:18;1.88;;;0.65;;
45694;SDS011;31408;45.468;9.124;2022-08-19T10:37:43;2.28;;;1.23;;
45694;SDS011;31408;45.468;9.124;2022-08-19T10:40:09;1.67;;;0.70;;
45694;SDS011;31408;45.468;9.124;2022-08-19T10:42:36;1.27;;;0.75;;
45694;SDS011;31408;45.468;9.124;2022-08-19T10:45:02;1.23;;;0.77;;
45694;SDS011;31408;45.468;9.124;2022-08-19T10:47:30;4.40;;;1.98;;
45694;SDS011;31408;45.468;9.124;2022-08-19T10:49:57;2.45;;;0.80;;
45694;SDS011;31408;45.468;9.124;2022-08-19T10:52:42;2.63;;;0.63;;
45694;SDS011;31408;45.468;9.124;2022-08-19T10:55:08;2.50;;;0.77;;
45694;SDS011;31408;45.468;9.124;2022-08-19T10:57:52;2.35;;;1.00;;
45694;SDS011;31408;45.468;9.124;2022-08-19T11:00:18;0.70;;;0.65;;
45694;SDS011;31408;45.468;9.124;2022-08-19T11:02:44;2.20;;;0.95;;
45694;SDS011;31408;45.468;9.124;2022-08-19T11:05:11;7.28;;;1.23;;
45694;SDS011;31408;45.468;9.124;2022-08-19T11:07:38;1.60;;;0.80;;
45694;SDS011;31408;45.468;9.124;2022-08-19T11:10:04;3.60;;;1.48;;
45694;SDS011;31408;45.468;9.124;2022-08-19T11:12:30;1.85;;;0.75;;
45694;SDS011;31408;45.468;9.124;2022-08-19T11:14:56;2.45;;;0.55;;
45694;SDS011;31408;45.468;9.124;2022-08-19T11:17:21;0.90;;;0.70;;
45694;SDS011;31408;45.468;9.124;2022-08-19T11:19:48;1.25;;;0.80;;
45694;SDS011;31408;45.468;9.124;2022-08-19T11:22:14;1.02;;;0.88;;
45694;SDS011;31408;45.468;9.124;2022-08-19T11:24:40;1.30;;;0.90;;
45694;SDS011;31408;45.468;9.124;2022-08-19T11:27:06;2.78;;;0.90;;
45694;SDS011;31408;45.468;9.124;2022-08-19T11:29:34;2.13;;;0.60;;
45694;SDS011;31408;45.468;9.124;2022-08-19T11:32:08;2.58;;;0.75;;
45694;SDS011;31408;45.468;9.124;2022-08-19T11:34:35;0.73;;;0.70;;
45694;SDS011;31408;45.468;9.124;2022-08-19T11:37:01;2.85;;;0.73;;
45694;SDS011;31408;45.468;9.124;2022-08-19T11:39:28;1.77;;;0.90;;
45694;SDS011;31408;45.468;9.124;2022-08-19T11:41:55;0.63;;;0.63;;
45694;SDS011;31408;45.468;9.124;2022-08-19T11:44:21;1.85;;;0.90;;
45694;SDS011;31408;45.468;9.124;2022-08-19T11:46:47;1.23;;;0.70;;
45694;SDS011;31408;45.468;9.124;2022-08-19T11:49:13;3.75;;;0.98;;
45694;SDS011;31408;45.468;9.124;2022-08-19T11:51:40;0.73;;;0.70;;
45694;SDS011;31408;45.468;9.124;2022-08-19T11:54:08;1.13;;;0.70;;
45694;SDS011;31408;45.468;9.124;2022-08-19T11:56:34;0.68;;;0.52;;
45694;SDS011;31408;45.468;9.124;2022-08-19T11:59:01;1.30;;;0.70;;
45694;SDS011;31408;45.468;9.124;2022-08-19T12:01:27;1.20;;;0.70;;
45694;SDS011;31408;45.468;9.124;2022-08-19T12:03:54;1.10;;;0.77;;
45694;SDS011;31408;45.468;9.124;2022-08-19T12:06:25;4.53;;;0.88;;
45694;SDS011;31408;45.468;9.124;2022-08-19T12:09:02;5.32;;;0.95;;
45694;SDS011;31408;45.468;9.124;2022-08-19T12:11:30;1.27;;;0.73;;
45694;SDS011;31408;45.468;9.124;2022-08-19T12:13:59;2.53;;;0.60;;
45694;SDS011;31408;45.468;9.124;2022-08-19T12:16:26;1.15;;;0.93;;
45694;SDS011;31408;45.468;9.124;2022-08-19T12:18:53;2.20;;;0.73;;
45694;SDS011;31408;45.468;9.124;2022-08-19T12:21:21;1.45;;;0.80;;
45694;SDS011;31408;45.468;9.124;2022-08-19T12:23:50;1.67;;;1.10;;
45694;SDS011;31408;45.468;9.124;2022-08-19T12:26:16;1.35;;;0.47;;
45694;SDS011;31408;45.468;9.124;2022-08-19T12:28:42;1.83;;;0.80;;
45694;SDS011;31408;45.468;9.124;2022-08-19T12:31:08;1.17;;;0.55;;
45694;SDS011;31408;45.468;9.124;2022-08-19T12:33:37;0.70;;;0.70;;
45694;SDS011;31408;45.468;9.124;2022-08-19T12:36:04;1.48;;;0.90;;
45694;SDS011;31408;45.468;9.124;2022-08-19T12:38:30;1.70;;;0.70;;
45694;SDS011;31408;45.468;9.124;2022-08-19T12:40:57;1.13;;;0.90;;
45694;SDS011;31408;45.468;9.124;2022-08-19T12:43:23;0.80;;;0.77;;
45694;SDS011;31408;45.468;9.124;2022-08-19T12:45:49;2.55;;;1.17;;
45694;SDS011;31408;45.468;9.124;2022-08-19T12:48:14;1.92;;;0.85;;
45694;SDS011;31408;45.468;9.124;2022-08-19T12:50:49;3.78;;;0.95;;
45694;SDS011;31408;45.468;9.124;2022-08-19T12:53:14;0.88;;;0.88;;
45694;SDS011;31408;45.468;9.124;2022-08-19T12:55:40;2.33;;;1.23;;
45694;SDS011;31408;45.468;9.124;2022-08-19T12:58:06;1.00;;;0.73;;
45694;SDS011;31408;45.468;9.124;2022-08-19T13:00:34;2.97;;;1.15;;
45694;SDS011;31408;45.468;9.124;2022-08-19T13:03:00;3.13;;;0.60;;
45694;SDS011;31408;45.468;9.124;2022-08-19T13:05:27;0.52;;;0.52;;
45694;SDS011;31408;45.468;9.124;2022-08-19T13:07:55;4.20;;;0.82;;
45694;SDS011;31408;45.468;9.124;2022-08-19T13:10:22;3.15;;;1.42;;
45694;SDS011;31408;45.468;9.124;2022-08-19T13:12:50;4.60;;;1.17;;
45694;SDS011;31408;45.468;9.124;2022-08-19T13:15:17;1.73;;;0.70;;
45694;SDS011;31408;45.468;9.124;2022-08-19T13:17:45;0.63;;;0.63;;
45694;SDS011;31408;45.468;9.124;2022-08-19T13:20:14;2.80;;;1.02;;
45694;SDS011;31408;45.468;9.124;2022-08-19T13:22:40;2.15;;;0.90;;
45694;SDS011;31408;45.468;9.124;2022-08-19T13:25:07;0.88;;;0.88;;
45694;SDS011;31408;45.468;9.124;2022-08-19T13:27:33;1.48;;;0.85;;
45694;SDS011;31408;45.468;9.124;2022-08-19T13:29:59;1.30;;;0.93;;
45694;SDS011;31408;45.468;9.124;2022-08-19T13:32:44;1.75;;;1.55;;
45694;SDS011;31408;45.468;9.124;2022-08-19T13:35:28;2.42;;;1.38;;
45694;SDS011;31408;45.468;9.124;2022-08-19T13:37:53;1.73;;;1.48;;
45694;SDS011;31408;45.468;9.124;2022-08-19T13:40:20;2.45;;;1.40;;
45694;SDS011;31408;45.468;9.124;2022-08-19T13:42:49;4.93;;;1.42;;
45694;SDS011;31408;45.468;9.124;2022-08-19T13:45:16;5.10;;;1.08;;
45694;SDS011;31408;45.468;9.124;2022-08-19T13:47:48;1.25;;;0.88;;
45694;SDS011;31408;45.468;9.124;2022-08-19T13:52:44;2.60;;;0.95;;
45694;SDS011;31408;45.468;9.124;2022-08-19T13:55:14;3.78;;;1.42;;
45694;SDS011;31408;45.468;9.124;2022-08-19T13:57:42;1.77;;;0.85;;
45694;SDS011;31408;45.468;9.124;2022-08-19T14:02:38;1.83;;;0.82;;
45694;SDS011;31408;45.468;9.124;2022-08-19T14:05:13;3.08;;;0.90;;
45694;SDS011;31408;45.468;9.124;2022-08-19T14:07:43;1.27;;;1.02;;
45694;SDS011;31408;45.468;9.124;2022-08-19T14:10:10;5.25;;;0.75;;
45694;SDS011;31408;45.468;9.124;2022-08-19T14:12:36;3.45;;;1.23;;
45694;SDS011;31408;45.468;9.124;2022-08-19T14:15:02;1.60;;;0.75;;
45694;SDS011;31408;45.468;9.124;2022-08-19T14:17:29;6.63;;;1.00;;
45694;SDS011;31408;45.468;9.124;2022-08-19T14:20:02;1.02;;;0.52;;
45694;SDS011;31408;45.468;9.124;2022-08-19T14:22:34;0.25;;;0.25;;
45694;SDS011;31408;45.468;9.124;2022-08-19T14:25:01;2.30;;;0.50;;
45694;SDS011;31408;45.468;9.124;2022-08-19T14:27:29;0.95;;;0.50;;
45694;SDS011;31408;45.468;9.124;2022-08-19T14:29:58;0.98;;;0.35;;
45694;SDS011;31408;45.468;9.124;2022-08-19T14:32:23;1.17;;;0.40;;
45694;SDS011;31408;45.468;9.124;2022-08-19T14:34:52;0.43;;;0.30;;
45694;SDS011;31408;45.468;9.124;2022-08-19T14:37:23;0.20;;;0.20;;
45694;SDS011;31408;45.468;9.124;2022-08-19T14:39:48;0.60;;;0.50;;
45694;SDS011;31408;45.468;9.124;2022-08-19T14:42:14;0.43;;;0.35;;
45694;SDS011;31408;45.468;9.124;2022-08-19T14:44:40;2.13;;;0.77;;
45694;SDS011;31408;45.468;9.124;2022-08-19T14:47:07;2.47;;;1.10;;
45694;SDS011;31408;45.468;9.124;2022-08-19T14:49:33;1.20;;;0.50;;
45694;SDS011;31408;45.468;9.124;2022-08-19T14:51:58;0.88;;;0.80;;
45694;SDS011;31408;45.468;9.124;2022-08-19T14:54:24;0.32;;;0.30;;
45694;SDS011;31408;45.468;9.124;2022-08-19T14:56:49;0.20;;;0.20;;
45694;SDS011;31408;45.468;9.124;2022-08-19T14:59:15;0.47;;;0.47;;
45694;SDS011;31408;45.468;9.124;2022-08-19T15:01:41;0.55;;;0.30;;
45694;SDS011;31408;45.468;9.124;2022-08-19T15:04:06;0.70;;;0.30;;
45694;SDS011;31408;45.468;9.124;2022-08-19T15:06:32;0.40;;;0.40;;